METAR Data
IDs: Format: Raw Decoded Include TAF

Data at: 2001 UTC 18 Apr 2021

EGXP 181850Z AUTO 10007KT 9999 // NCD 09/M01 Q1024